Time;durP1;ratioP1;P1;durP2;ratioP2;P2;SDS_P1;SDS_P2;PMS_P1;PMS_P2;Temp;Humidity;BMP_temperature;BMP_pressure;BME280_temperature;BME280_humidity;BME280_pressure;Samples;Min_cycle;Max_cycle;Signal;HPM_P1;HPM_P2
2022/01/26 00:06:37;;;;;;;42.72;17.52;;;;;;;-3.33;nan;101807.38;5016324;28;20125;-68
2022/01/26 00:09:04;;;;;;;39.30;16.42;;;;;;;-3.59;nan;101796.19;5021764;28;20123;-72
2022/01/26 00:11:33;;;;;;;42.42;17.95;;;;;;;-3.27;nan;101818.13;5035748;28;20025;-75
2022/01/26 00:14:01;;;;;;;39.67;16.17;;;;;;;-3.36;nan;101807.59;5014518;28;20037;-71
2022/01/26 00:16:34;;;;;;;42.95;17.73;;;;;;;-3.31;nan;101813.28;5033848;28;20278;-72
2022/01/26 00:19:01;;;;;;;39.75;16.33;;;;;;;-3.32;nan;101819.38;5036517;28;20079;-73
2022/01/26 00:21:40;;;;;;;43.75;17.35;;;;;;;-3.36;nan;101815.31;5035374;28;20051;-72
2022/01/26 00:24:24;;;;;;;42.63;17.67;;;;;;;-3.32;nan;101814.22;5034448;28;20083;-71
2022/01/26 00:29:33;;;;;;;43.05;16.70;;;;;;;-3.65;nan;101756.22;5033720;28;20038;-73
2022/01/26 00:43:01;;;;;;;44.72;17.70;;;;;;;-3.44;nan;101805.53;5033790;28;20484;-72
2022/01/26 00:45:34;;;;;;;48.10;18.45;;;;;;;-3.64;nan;101781.03;5034949;28;20029;-72
2022/01/26 00:48:03;;;;;;;41.78;17.65;;;;;;;-3.58;nan;101785.81;5033990;28;20029;-72
2022/01/26 00:50:29;;;;;;;;;;;;;;;-3.47;nan;101808.28;5035403;28;20079;-72
2022/01/26 00:52:55;;;;;;;46.63;19.05;;;;;;;-3.59;nan;101786.75;5033314;28;20325;-71
2022/01/26 00:55:21;;;;;;;48.17;19.42;;;;;;;-3.60;nan;101789.41;5032836;28;20037;-72
2022/01/26 00:57:47;;;;;;;51.72;21.15;;;;;;;-3.56;nan;101796.84;5037013;28;20501;-72
2022/01/26 01:00:17;;;;;;;60.80;23.70;;;;;;;-3.46;nan;101812.53;5015000;28;20491;-72
2022/01/26 01:02:43;;;;;;;59.92;23.83;;;;;;;-3.51;nan;101805.09;5014915;28;20048;-73
2022/01/26 01:05:26;;;;;;;56.78;23.15;;;;;;;-3.46;nan;101802.22;5019597;28;20021;-72
2022/01/26 01:07:57;;;;;;;59.40;23.83;;;;;;;-3.44;nan;101800.38;5015662;28;20095;-73
2022/01/26 01:10:24;;;;;;;59.67;24.73;;;;;;;-3.52;nan;101785.44;5036795;28;20032;-72
2022/01/26 01:12:55;;;;;;;57.42;24.30;;;;;;;-3.49;nan;101787.78;5034167;28;20033;-69
2022/01/26 01:15:21;;;;;;;64.43;26.17;;;;;;;-3.53;nan;101786.34;5033612;28;20029;-72
2022/01/26 01:17:51;;;;;;;70.63;27.40;;;;;;;-3.46;nan;101803.03;5035914;28;20504;-72
2022/01/26 01:23:28;;;;;;;68.38;27.95;;;;;;;-3.55;nan;101788.19;5034336;28;20034;-72
2022/01/26 01:29:29;;;;;;;68.90;29.55;;;;;;;-3.48;nan;101804.88;5033390;28;20087;-72
2022/01/26 01:31:40;;;;;;;76.40;29.33;;;;;;;-3.38;nan;101809.44;5011746;28;20502;-70
2022/01/26 01:34:04;;;;;;;76.50;30.52;;;;;;;-3.52;nan;101797.44;5033534;28;20046;-72
2022/01/26 01:36:29;;;;;;;79.85;32.33;;;;;;;-3.56;nan;101786.53;5034031;28;20510;-72
2022/01/26 01:38:55;;;;;;;76.95;30.90;;;;;;;-3.43;nan;101791.72;5016021;28;20481;-72
2022/01/26 01:41:21;;;;;;;73.22;28.63;;;;;;;-3.35;nan;101799.78;5040899;28;20033;-72
2022/01/26 01:43:47;;;;;;;72.72;30.00;;;;;;;-3.31;nan;101793.50;5025050;28;20061;-71
2022/01/26 01:46:12;;;;;;;70.70;28.85;;;;;;;-3.50;nan;101762.13;5033055;28;20483;-72
2022/01/26 01:48:38;;;;;;;71.40;28.38;;;;;;;-3.31;nan;101790.09;5033767;28;20041;-71
2022/01/26 01:51:08;;;;;;;72.30;29.60;;;;;;;-3.37;nan;101778.44;5016063;28;20037;-71
2022/01/26 01:53:41;;;;;;;66.70;27.27;;;;;;;-3.41;nan;101771.84;5032411;28;20164;-72
2022/01/26 01:56:10;;;;;;;65.63;26.67;;;;;;;-3.44;nan;101762.56;5014510;28;20061;-71
2022/01/26 01:58:37;;;;;;;54.08;21.95;;;;;;;-3.28;nan;101798.47;5014039;28;20037;-72
2022/01/26 02:01:04;;;;;;;65.25;26.20;;;;;;;-3.24;nan;101796.50;5011911;28;20068;-71
2022/01/26 02:03:29;;;;;;;69.30;27.88;;;;;;;-3.24;nan;101794.75;5013721;28;20070;-72
2022/01/26 02:05:55;;;;;;;64.18;27.48;;;;;;;-3.31;nan;101780.59;5027678;28;20170;-72
2022/01/26 02:08:20;;;;;;;68.15;28.42;;;;;;;-3.22;nan;101799.81;5032569;28;20033;-72
2022/01/26 02:10:46;;;;;;;73.63;28.08;;;;;;;-3.21;nan;101797.13;5040525;28;20029;-72
2022/01/26 02:13:29;;;;;;;67.38;27.63;;;;;;;-3.35;nan;101766.31;5022906;28;20112;-72
2022/01/26 02:18:48;;;;;;;73.43;29.02;;;;;;;-3.30;nan;101784.03;5036111;28;20116;-72
2022/01/26 02:57:31;;;;;;;63.08;26.33;;;;;;;-3.34;nan;101775.66;4971501;28;20460;-73
2022/01/26 03:02:45;;;;;;;67.88;26.75;;;;;;;-3.35;nan;101770.59;4970863;28;20043;-72
2022/01/26 03:05:13;;;;;;;74.55;27.45;;;;;;;-3.36;nan;101769.78;4971084;28;20503;-73
2022/01/26 03:08:02;;;;;;;68.15;27.30;;;;;;;-3.40;nan;101754.63;4965464;28;20038;-73
2022/01/26 03:10:42;;;;;;;69.20;27.75;;;;;;;-3.32;nan;101778.16;4975785;28;20073;-73
2022/01/26 03:13:14;;;;;;;70.18;28.98;;;;;;;-3.32;nan;101773.81;4973047;28;20046;-73
2022/01/26 03:15:45;;;;;;;70.53;28.55;;;;;;;-3.37;nan;101773.31;4969815;28;20080;-74
2022/01/26 03:20:57;;;;;;;75.55;30.00;;;;;;;-3.34;nan;101770.50;4971538;28;20043;-71
2022/01/26 03:33:57;;;;;;;75.70;30.20;;;;;;;-3.35;nan;101774.03;5026376;28;20037;-71
2022/01/26 03:36:27;;;;;;;68.25;28.55;;;;;;;-3.39;nan;101764.03;5036379;28;20030;-71
2022/01/26 03:39:07;;;;;;;78.35;30.60;;;;;;;-3.42;nan;101753.00;5018120;28;20033;-72
2022/01/26 03:44:07;;;;;;;68.05;28.80;;;;;;;-3.26;nan;101775.97;5035304;28;20033;-71
2022/01/26 03:46:33;;;;;;;70.60;28.25;;;;;;;-3.25;nan;101780.22;5036336;28;20033;-71
2022/01/26 03:48:59;;;;;;;73.93;29.85;;;;;;;-3.39;nan;101759.69;5035807;28;20531;-71
2022/01/26 03:51:25;;;;;;;74.38;31.25;;;;;;;-3.25;nan;101779.41;5017196;28;20136;-73
2022/01/26 03:53:51;;;;;;;73.82;29.38;;;;;;;-3.39;nan;101754.53;5035434;28;20079;-76
2022/01/26 03:56:16;;;;;;;76.50;30.67;;;;;;;-3.35;nan;101758.56;5018235;28;20050;-75
2022/01/26 03:58:42;;;;;;;75.68;29.45;;;;;;;-3.29;nan;101758.16;5007887;28;20492;-76
2022/01/26 04:01:07;;;;;;;78.97;30.10;;;;;;;-3.29;nan;101759.91;5016263;28;20052;-76
2022/01/26 04:03:33;;;;;;;72.55;29.63;;;;;;;-3.46;nan;101740.41;5035351;28;20033;-75
2022/01/26 04:05:58;;;;;;;74.15;30.25;;;;;;;-3.39;nan;101735.69;5035753;28;20064;-75
2022/01/26 04:08:28;;;;;;;77.20;30.05;;;;;;;-3.36;nan;101762.06;5036245;28;20032;-75
2022/01/26 04:13:31;;;;;;;79.50;31.70;;;;;;;-3.27;nan;101778.66;5049386;28;20065;-74
2022/01/26 04:15:57;;;;;;;85.32;32.58;;;;;;;-3.30;nan;101766.81;5019589;28;20075;-75
2022/01/26 04:18:29;;;;;;;88.10;32.50;;;;;;;-3.31;nan;101757.44;5039538;28;20041;-77
2022/01/26 04:20:58;;;;;;;82.53;32.55;;;;;;;-3.22;nan;101774.03;5036043;28;20033;-75
2022/01/26 04:25:50;;;;;;;86.07;33.15;;;;;;;-3.34;nan;101759.41;5017369;28;20073;-76
2022/01/26 04:28:41;;;;;;;78.93;33.22;;;;;;;-3.35;nan;101748.28;5034383;28;20041;-75
2022/01/26 04:31:04;;;;;;;85.10;33.42;;;;;;;-3.37;nan;101754.44;5033429;28;20072;-75
2022/01/26 04:33:32;;;;;;;80.40;32.50;;;;;;;-3.32;nan;101762.69;5034203;28;20029;-76
2022/01/26 04:35:58;;;;;;;92.30;35.37;;;;;;;-3.23;nan;101777.56;5034053;28;20069;-75
2022/01/26 04:38:36;;;;;;;86.53;34.92;;;;;;;-3.31;nan;101772.88;5034203;28;20061;-74
2022/01/26 04:43:34;;;;;;;97.47;37.13;;;;;;;-3.22;nan;101780.00;5033696;28;20427;-74
2022/01/26 04:45:59;;;;;;;84.93;34.80;;;;;;;-3.27;nan;101764.03;5015201;28;20034;-75
2022/01/26 04:48:26;;;;;;;87.90;35.72;;;;;;;-3.22;nan;101781.78;5012556;28;20060;-74
2022/01/26 04:50:52;;;;;;;87.13;35.70;;;;;;;-3.23;nan;101778.38;5015946;28;20040;-75
2022/01/26 04:53:18;;;;;;;93.88;37.28;;;;;;;-3.17;nan;101777.13;5015492;28;20051;-75
2022/01/26 04:55:43;;;;;;;93.63;37.45;;;;;;;-3.22;nan;101774.03;5034050;28;20038;-75
2022/01/26 04:58:09;;;;;;;97.20;37.45;;;;;;;-3.21;nan;101773.94;5033344;28;20076;-74
2022/01/26 05:00:34;;;;;;;93.65;36.85;;;;;;;-3.23;nan;101756.94;5026438;28;20037;-75
2022/01/26 05:03:00;;;;;;;92.80;37.33;;;;;;;-3.20;nan;101767.03;5017168;28;20048;-75
2022/01/26 05:05:25;;;;;;;100.10;38.08;;;;;;;-3.16;nan;101771.06;5034053;28;20021;-75
2022/01/26 05:07:51;;;;;;;94.30;37.90;;;;;;;-3.28;nan;101743.53;5015610;28;20561;-75
2022/01/26 05:10:18;;;;;;;108.32;38.97;;;;;;;-3.21;nan;101757.66;5037578;28;20029;-75
2022/01/26 05:12:43;;;;;;;109.95;41.70;;;;;;;-3.26;nan;101746.81;5023742;28;20048;-74
2022/01/26 05:15:10;;;;;;;108.15;40.90;;;;;;;-3.18;nan;101772.91;5015944;28;20033;-72
2022/01/26 05:17:37;;;;;;;111.32;43.83;;;;;;;-3.23;nan;101770.66;5036609;28;20033;-72
2022/01/26 05:20:07;;;;;;;113.68;44.00;;;;;;;-3.20;nan;101764.47;5015091;28;20124;-72
2022/01/26 05:22:33;;;;;;;113.40;44.33;;;;;;;-3.17;nan;101766.81;5033365;28;20040;-71
2022/01/26 05:24:58;;;;;;;113.57;44.45;;;;;;;-3.29;nan;101739.31;5033418;28;20030;-72
2022/01/26 05:27:24;;;;;;;113.82;43.70;;;;;;;-3.23;nan;101754.38;5034891;28;20036;-72
2022/01/26 05:29:49;;;;;;;110.85;43.90;;;;;;;-3.21;nan;101745.63;5016388;28;20164;-72
2022/01/26 05:32:14;;;;;;;112.03;44.03;;;;;;;-3.17;nan;101750.56;5036551;28;20048;-72
2022/01/26 05:34:40;;;;;;;124.30;46.03;;;;;;;-3.31;nan;101744.56;5033645;28;20072;-71
2022/01/26 05:37:05;;;;;;;119.38;44.95;;;;;;;-3.30;nan;101725.59;5031904;28;20116;-73
2022/01/26 05:39:32;;;;;;;115.72;45.30;;;;;;;-3.22;nan;101754.25;5033151;28;20087;-72
2022/01/26 05:41:58;;;;;;;124.95;47.42;;;;;;;-3.53;nan;101724.53;5032106;28;20034;-71
2022/01/26 05:44:23;;;;;;;122.05;45.67;;;;;;;-3.27;nan;101751.16;5011168;28;20033;-70
2022/01/26 05:46:50;;;;;;;125.40;46.70;;;;;;;-3.23;nan;101744.88;5015719;28;20092;-73
2022/01/26 05:49:18;;;;;;;130.25;47.47;;;;;;;-3.19;nan;101757.56;5014579;28;20030;-70
2022/01/26 05:51:47;;;;;;;124.10;48.93;;;;;;;-3.23;nan;101757.75;5032764;28;20494;-73
2022/01/26 05:54:16;;;;;;;124.97;47.95;;;;;;;-3.29;nan;101742.69;5014894;28;20095;-72
2022/01/26 05:56:46;;;;;;;128.27;50.28;;;;;;;-3.23;nan;101750.03;5012958;28;20045;-73
2022/01/26 05:59:15;;;;;;;128.70;50.75;;;;;;;-3.21;nan;101763.66;5031232;28;20152;-73
2022/01/26 06:01:41;;;;;;;132.30;50.00;;;;;;;-3.19;nan;101762.69;5030365;28;20409;-73
2022/01/26 06:04:06;;;;;;;125.78;50.20;;;;;;;-3.33;nan;101743.81;5028802;28;20034;-77
2022/01/26 06:06:32;;;;;;;128.93;49.35;;;;;;;-3.27;nan;101742.59;5032467;28;20033;-76
2022/01/26 06:08:57;;;;;;;123.30;49.45;;;;;;;-3.32;nan;101742.09;5028035;28;20030;-76
2022/01/26 06:11:22;;;;;;;122.85;48.22;;;;;;;-3.23;nan;101752.63;5033464;28;20041;-76
2022/01/26 06:13:48;;;;;;;131.68;48.58;;;;;;;-3.43;nan;101730.72;5007303;28;20088;-72
2022/01/26 06:16:14;;;;;;;131.48;51.90;;;;;;;-3.33;nan;101754.13;5035088;28;20435;-73
2022/01/26 06:18:39;;;;;;;131.18;49.28;;;;;;;-3.21;nan;101765.38;5008919;28;20037;-74
2022/01/26 06:21:09;;;;;;;125.10;49.47;;;;;;;-3.39;nan;101733.94;5013560;28;20103;-75
2022/01/26 06:23:35;;;;;;;128.65;49.05;;;;;;;-3.24;nan;101756.09;5003422;28;20121;-75
2022/01/26 06:26:00;;;;;;;138.77;51.60;;;;;;;-3.30;nan;101756.53;5032109;28;20111;-75
2022/01/26 06:28:28;;;;;;;133.48;51.97;;;;;;;-3.26;nan;101757.13;5012638;28;20112;-74
2022/01/26 06:31:00;;;;;;;142.40;51.72;;;;;;;-3.18;nan;101787.53;5034117;28;20464;-74
2022/01/26 06:33:34;;;;;;;133.48;51.08;;;;;;;-3.33;nan;101771.34;5035523;28;20124;-75
2022/01/26 06:36:00;;;;;;;131.63;50.72;;;;;;;-3.28;nan;101780.44;5016002;28;20559;-75
2022/01/26 06:38:28;;;;;;;133.07;51.67;;;;;;;-3.29;nan;101762.50;5026212;28;20042;-74
2022/01/26 06:40:54;;;;;;;138.73;53.08;;;;;;;-3.11;nan;101789.63;5013027;28;20037;-73
2022/01/26 06:43:22;;;;;;;133.77;52.38;;;;;;;-3.10;nan;101790.44;5026497;28;20165;-73
2022/01/26 06:45:51;;;;;;;139.38;53.28;;;;;;;-3.37;nan;101744.97;5009729;28;20116;-74
2022/01/26 06:50:43;;;;;;;136.95;53.80;;;;;;;-3.12;nan;101795.69;5028894;28;20025;-72
2022/01/26 06:53:09;;;;;;;142.80;52.47;;;;;;;-3.08;nan;101786.84;5010703;28;20041;-74
2022/01/26 06:55:36;;;;;;;134.85;54.03;;;;;;;-3.03;nan;101786.53;5011133;28;20037;-74
2022/01/26 06:58:02;;;;;;;133.38;54.00;;;;;;;-3.06;nan;101779.00;5013862;28;20044;-73
2022/01/26 07:00:27;;;;;;;142.90;53.45;;;;;;;-3.02;nan;101776.13;5031128;28;20041;-74
2022/01/26 07:02:54;;;;;;;136.13;52.22;;;;;;;-3.05;nan;101760.84;5031638;28;20077;-74
2022/01/26 07:05:21;;;;;;;149.35;55.70;;;;;;;-3.02;nan;101783.00;5009809;28;20030;-74
2022/01/26 07:07:47;;;;;;;139.48;54.35;;;;;;;-3.03;nan;101781.38;5034905;28;20112;-73
2022/01/26 07:10:12;;;;;;;141.70;53.03;;;;;;;-3.03;nan;101783.94;5019289;28;20041;-73
2022/01/26 07:12:38;;;;;;;139.55;55.47;;;;;;;-3.13;nan;101760.56;5013620;28;20391;-73
2022/01/26 07:23:08;;;;;;;159.45;57.60;;;;;;;-3.07;nan;101765.28;5031951;28;20029;-74
2022/01/26 07:25:34;;;;;;;148.30;57.63;;;;;;;-3.17;nan;101743.63;5008424;28;20030;-74
2022/01/26 07:28:02;;;;;;;138.02;56.88;;;;;;;-3.03;nan;101764.16;5029099;28;20755;-73
2022/01/26 07:30:29;;;;;;;154.98;59.80;;;;;;;-2.98;nan;101768.19;5012415;28;20033;-72
2022/01/26 07:32:54;;;;;;;153.40;58.13;;;;;;;-3.07;nan;101756.72;5029762;28;20061;-72
2022/01/26 07:35:19;;;;;;;146.15;56.47;;;;;;;-3.10;nan;101749.22;5011519;28;20034;-75
2022/01/26 07:37:47;;;;;;;148.68;56.55;;;;;;;-2.93;nan;101774.66;5008334;28;20071;-76
2022/01/26 07:40:13;;;;;;;148.02;57.83;;;;;;;-3.01;nan;101759.72;5012233;28;20041;-76
2022/01/26 07:42:39;;;;;;;159.20;61.00;;;;;;;-2.91;nan;101770.25;5026641;28;20061;-76
2022/01/26 07:45:08;;;;;;;163.63;62.58;;;;;;;-2.87;nan;101781.19;5026999;28;20137;-75
2022/01/26 07:47:34;;;;;;;160.10;58.78;;;;;;;-2.83;nan;101786.00;5004413;28;20483;-76
2022/01/26 07:50:01;;;;;;;153.30;61.03;;;;;;;-2.88;nan;101775.19;5025215;28;20041;-75
2022/01/26 07:52:34;;;;;;;159.13;59.70;;;;;;;-2.90;nan;101769.31;5030145;28;20029;-73
2022/01/26 07:55:00;;;;;;;167.75;63.05;;;;;;;-2.90;nan;101766.72;5004111;28;20189;-75
2022/01/26 07:57:26;;;;;;;150.48;58.63;;;;;;;-2.88;nan;101758.91;5031307;28;20460;-75
2022/01/26 07:59:53;;;;;;;148.25;58.47;;;;;;;-2.80;nan;101778.09;5012321;28;20043;-73
2022/01/26 08:02:20;;;;;;;151.65;57.35;;;;;;;-2.88;nan;101766.63;5030338;28;20034;-73
2022/01/26 08:04:45;;;;;;;151.95;58.45;;;;;;;-2.81;nan;101775.59;5029978;28;20450;-73
2022/01/26 08:07:10;;;;;;;149.05;57.88;;;;;;;-2.91;nan;101765.09;5013129;28;20029;-74
2022/01/26 08:09:42;;;;;;;154.13;59.42;;;;;;;-2.83;nan;101775.69;5029830;28;20076;-74
2022/01/26 08:12:08;;;;;;;163.02;59.75;;;;;;;-2.90;nan;101771.88;5026955;28;20040;-74
2022/01/26 08:14:33;;;;;;;166.52;62.63;;;;;;;-2.87;nan;101776.84;5030822;28;20030;-74
2022/01/26 08:16:59;;;;;;;168.88;61.58;;;;;;;-2.84;nan;101786.94;5017763;28;20033;-73
2022/01/26 08:19:24;;;;;;;168.10;61.03;;;;;;;-2.82;nan;101784.28;5008164;28;20064;-73
2022/01/26 08:21:49;;;;;;;171.32;63.30;;;;;;;-2.78;nan;101796.84;5019492;28;20030;-76
2022/01/26 08:24:15;;;;;;;169.77;63.42;;;;;;;-2.68;nan;101804.78;5016252;28;20033;-75
2022/01/26 08:26:47;;;;;;;163.77;60.80;;;;;;;-2.68;nan;101791.06;5034013;28;20039;-74
2022/01/26 08:29:18;;;;;;;161.45;61.85;;;;;;;-2.61;nan;101808.59;5032668;28;20033;-76
2022/01/26 08:31:44;;;;;;;167.20;60.85;;;;;;;-2.59;nan;101800.75;5033649;28;20120;-76
2022/01/26 08:34:10;;;;;;;157.32;59.88;;;;;;;-2.59;nan;101793.00;5033460;28;20116;-76
2022/01/26 08:36:36;;;;;;;168.45;60.08;;;;;;;-2.53;nan;101802.09;5029913;28;20075;-75
2022/01/26 08:39:01;;;;;;;160.00;59.08;;;;;;;-2.58;nan;101795.50;5034887;28;20037;-74
2022/01/26 08:41:28;;;;;;;173.45;60.45;;;;;;;-2.46;nan;101821.38;5034083;28;20076;-76
2022/01/26 08:43:53;;;;;;;148.02;58.20;;;;;;;-2.45;nan;101821.25;5030309;28;20037;-76
2022/01/26 08:46:19;;;;;;;157.98;62.33;;;;;;;-2.43;nan;101819.41;5036268;28;20116;-75
2022/01/26 08:48:44;;;;;;;165.50;61.42;;;;;;;-2.52;nan;101791.66;5014529;28;20057;-76
2022/01/26 08:51:09;;;;;;;175.82;61.60;;;;;;;-2.54;nan;101796.09;5011396;28;20053;-73
2022/01/26 08:53:35;;;;;;;159.07;59.28;;;;;;;-2.45;nan;101800.63;5025084;28;20033;-73
2022/01/26 08:56:00;;;;;;;170.23;61.05;;;;;;;-2.39;nan;101814.88;5041492;28;20255;-74
2022/01/26 08:58:26;;;;;;;167.05;62.15;;;;;;;-2.45;nan;101802.38;5020200;28;20049;-74
2022/01/26 09:00:52;;;;;;;160.52;61.58;;;;;;;-2.37;nan;101816.41;5040087;28;20040;-75
2022/01/26 09:03:18;;;;;;;162.02;61.35;;;;;;;-2.36;nan;101828.38;5017179;28;20033;-74
2022/01/26 09:05:43;;;;;;;169.07;62.65;;;;;;;-2.35;nan;101816.28;5012404;28;20056;-72
2022/01/26 09:08:09;;;;;;;163.20;60.60;;;;;;;-2.28;nan;101830.44;5030712;28;20491;-72
2022/01/26 09:10:37;;;;;;;153.82;60.00;;;;;;;-2.26;nan;101832.91;5018337;28;20036;-73
2022/01/26 09:13:02;;;;;;;160.63;58.10;;;;;;;-2.33;nan;101813.63;5016235;28;20502;-76
2022/01/26 09:15:29;;;;;;;159.00;60.47;;;;;;;-2.36;nan;101807.75;5032720;28;20033;-76
2022/01/26 09:17:57;;;;;;;154.20;59.85;;;;;;;-2.23;nan;101827.53;5036389;28;20033;-76
2022/01/26 09:20:22;;;;;;;164.20;58.63;;;;;;;-2.34;nan;101809.41;5033722;28;20036;-76
2022/01/26 09:22:48;;;;;;;158.80;60.13;;;;;;;-2.29;nan;101813.31;5034055;28;20391;-75
2022/01/26 09:25:13;;;;;;;164.23;61.85;;;;;;;-2.28;nan;101806.38;5024708;28;20038;-76
2022/01/26 09:27:39;;;;;;;164.93;60.50;;;;;;;-2.30;nan;101796.16;5032953;28;20052;-75
2022/01/26 09:30:05;;;;;;;173.43;62.67;;;;;;;-2.15;nan;101809.78;5015271;28;20475;-75
2022/01/26 09:32:30;;;;;;;164.18;60.90;;;;;;;-2.16;nan;101810.69;5016506;28;20061;-75
2022/01/26 09:34:56;;;;;;;162.05;61.35;;;;;;;-2.10;nan;101815.44;5033418;28;20248;-75
2022/01/26 09:37:21;;;;;;;164.93;62.35;;;;;;;-2.19;nan;101798.81;5014408;28;20030;-75
2022/01/26 09:39:48;;;;;;;160.88;62.05;;;;;;;-2.06;nan;101808.28;5032490;28;20455;-75
2022/01/26 09:42:14;;;;;;;164.48;60.42;;;;;;;-2.09;nan;101804.16;5034604;28;20041;-74
2022/01/26 09:44:40;;;;;;;164.00;60.33;;;;;;;-2.14;nan;101791.59;5028556;28;20156;-74
2022/01/26 09:47:06;;;;;;;162.55;57.95;;;;;;;-2.08;nan;101811.00;5015607;28;20120;-73
2022/01/26 09:49:32;;;;;;;164.90;60.65;;;;;;;-2.00;nan;101811.28;5029232;28;20471;-72
2022/01/26 09:52:07;;;;;;;170.65;60.22;;;;;;;-2.04;nan;101798.69;5015308;28;20075;-72
2022/01/26 09:54:33;;;;;;;148.75;53.20;;;;;;;-2.04;nan;101793.53;5011961;28;20041;-72
2022/01/26 09:57:04;;;;;;;151.85;54.95;;;;;;;-2.00;nan;101797.53;5012985;28;20480;-72
2022/01/26 09:59:31;;;;;;;158.00;56.17;;;;;;;-1.96;nan;101807.56;5026785;28;20040;-72
2022/01/26 10:01:57;;;;;;;168.95;61.05;;;;;;;-2.00;nan;101794.97;5025883;28;20510;-72
2022/01/26 10:04:34;;;;;;;163.80;60.08;;;;;;;-2.01;nan;101791.56;5028880;28;20079;-72
2022/01/26 10:07:14;;;;;;;162.75;59.55;;;;;;;-1.89;nan;101800.19;5019028;28;20502;-71
2022/01/26 10:09:57;;;;;;;183.05;61.33;;;;;;;-1.91;nan;101788.34;5027681;28;20045;-73
2022/01/26 10:15:33;;;;;;;170.38;59.13;;;;;;;-1.88;nan;101790.69;5033122;28;20037;-74
2022/01/26 10:18:05;;;;;;;139.65;46.22;;;;;;;-1.81;nan;101802.22;5013650;28;20441;-76
2022/01/26 10:20:42;;;;;;;194.23;63.90;;;;;;;-1.76;nan;101792.41;5017614;28;20081;-75
2022/01/26 10:23:12;;;;;;;196.90;64.30;;;;;;;-1.62;nan;101789.63;5039823;28;20040;-74
2022/01/26 10:25:39;;;;;;;186.88;63.40;;;;;;;-1.94;nan;101722.22;5033650;28;20583;-75
2022/01/26 10:28:04;;;;;;;193.90;64.30;;;;;;;-1.57;nan;101782.38;5012528;28;20040;-76
2022/01/26 10:30:29;;;;;;;178.57;63.35;;;;;;;-1.69;nan;101765.19;5028641;28;20037;-75
2022/01/26 10:32:55;;;;;;;189.43;65.22;;;;;;;-1.62;nan;101766.41;5008274;28;20032;-74
2022/01/26 10:35:20;;;;;;;181.25;63.53;;;;;;;-1.60;nan;101777.44;5002424;28;20476;-75
2022/01/26 10:37:51;;;;;;;202.23;62.13;;;;;;;-1.62;nan;101774.16;5032088;28;20308;-76
2022/01/26 10:40:21;;;;;;;204.85;68.78;;;;;;;-1.63;nan;101761.34;5037531;28;20086;-76
2022/01/26 10:43:06;;;;;;;194.27;64.65;;;;;;;-1.57;nan;101766.88;5038672;28;20474;-75
2022/01/26 10:45:35;;;;;;;198.38;67.13;;;;;;;-1.56;nan;101763.34;5018218;28;20048;-71
2022/01/26 10:48:20;;;;;;;220.60;70.03;;;;;;;-1.60;nan;101755.97;5028612;28;20033;-72
2022/01/26 10:51:08;;;;;;;214.02;67.25;;;;;;;-1.52;nan;101759.63;5031020;28;20048;-73
2022/01/26 10:53:37;;;;;;;213.60;66.97;;;;;;;-1.53;nan;101747.66;5027804;28;20033;-72
2022/01/26 10:56:04;;;;;;;231.05;71.35;;;;;;;-1.42;nan;101761.53;5011996;28;20076;-72
2022/01/26 10:58:30;;;;;;;231.23;71.72;;;;;;;-1.41;nan;101758.00;5025867;28;20439;-73
2022/01/26 11:00:57;;;;;;;221.95;67.43;;;;;;;-1.39;nan;101751.81;5026753;28;20029;-71
2022/01/26 11:03:23;;;;;;;223.40;70.32;;;;;;;-1.31;nan;101766.75;5021740;28;20037;-73
2022/01/26 11:05:48;;;;;;;221.68;70.88;;;;;;;-1.35;nan;101740.28;5017669;28;20026;-71
2022/01/26 11:08:16;;;;;;;231.60;70.43;;;;;;;-1.52;nan;101717.47;5026322;28;20036;-71
2022/01/26 11:10:45;;;;;;;229.98;69.30;;;;;;;-1.33;nan;101735.84;5026722;28;20399;-77
2022/01/26 11:13:11;;;;;;;223.30;71.00;;;;;;;-1.32;nan;101734.91;5041428;28;20095;-77
2022/01/26 11:15:38;;;;;;;236.43;71.88;;;;;;;-1.23;nan;101751.47;5036685;28;20041;-77
2022/01/26 11:18:10;;;;;;;251.60;74.40;;;;;;;-1.29;nan;101741.59;5018601;28;20040;-78
2022/01/26 11:21:05;;;;;;;232.55;71.10;;;;;;;-1.29;nan;101732.09;5014567;28;20030;-78
2022/01/26 11:23:36;;;;;;;227.75;73.18;;;;;;;-1.30;nan;101732.19;5003540;28;20037;-77
2022/01/26 11:26:02;;;;;;;248.50;69.70;;;;;;;-1.22;nan;101729.88;5037048;28;20037;-78
2022/01/26 11:28:28;;;;;;;236.02;70.38;;;;;;;-1.28;nan;101714.81;5035147;28;20033;-78
2022/01/26 11:30:59;;;;;;;245.52;74.38;;;;;;;-1.12;nan;101738.56;5026616;28;20034;-78
2022/01/26 11:33:27;;;;;;;244.80;73.95;;;;;;;-1.08;nan;101734.84;5027223;28;20581;-78
2022/01/26 11:35:55;;;;;;;228.60;70.70;;;;;;;-1.07;nan;101728.72;5035336;28;20124;-78
2022/01/26 11:46:39;;;;;;;207.73;70.38;;;;;;;-0.99;nan;101722.94;5026820;28;20025;-70
2022/01/26 11:49:07;;;;;;;223.27;68.55;;;;;;;-0.91;nan;101720.63;5010967;28;20038;-71
2022/01/26 11:51:48;;;;;;;227.40;69.80;;;;;;;-0.88;nan;101714.41;5009130;28;20037;-74
2022/01/26 11:54:16;;;;;;;216.00;67.15;;;;;;;-0.84;nan;101713.19;5031013;28;20064;-73
2022/01/26 11:57:00;;;;;;;150.90;49.55;;;;;;;-0.78;nan;101701.56;5015733;28;20041;-74
2022/01/26 11:59:28;;;;;;;207.80;66.13;;;;;;;-0.82;nan;101697.56;5034241;28;20094;-74
2022/01/26 12:01:59;;;;;;;189.68;65.13;;;;;;;-0.80;nan;101698.28;5034222;28;20037;-74
2022/01/26 12:04:25;;;;;;;190.15;65.20;;;;;;;-0.85;nan;101685.72;5033998;28;20029;-74
2022/01/26 12:06:58;;;;;;;199.38;66.50;;;;;;;-0.83;nan;101685.59;5016458;28;20041;-75
2022/01/26 12:09:24;;;;;;;199.45;66.20;;;;;;;-0.79;nan;101690.41;5004569;28;20587;-74
2022/01/26 12:11:55;;;;;;;199.88;66.68;;;;;;;-0.76;nan;101695.34;5035485;28;20053;-75
2022/01/26 12:14:22;;;;;;;180.23;63.75;;;;;;;-0.73;nan;101691.69;5020153;28;20519;-74
2022/01/26 12:16:51;;;;;;;175.52;59.13;;;;;;;-0.80;nan;101678.41;5027516;28;20498;-75
2022/01/26 12:20:08;;;;;;;184.75;64.40;;;;;;;-0.81;nan;101673.34;5020610;28;20633;-73
2022/01/26 12:36:30;;;;;;;185.02;66.05;;;;;;;-0.66;nan;101685.09;5034627;28;20034;-74
2022/01/26 12:38:58;;;;;;;176.10;64.72;;;;;;;-0.59;nan;101682.88;5017540;28;20128;-74
2022/01/26 12:43:55;;;;;;;178.68;64.47;;;;;;;-0.66;nan;101667.81;5034365;28;20033;-76
2022/01/26 12:46:25;;;;;;;173.40;62.53;;;;;;;-0.50;nan;101682.16;5033601;28;20034;-77
2022/01/26 12:48:52;;;;;;;173.32;61.15;;;;;;;-0.51;nan;101691.66;5013371;28;20149;-78
2022/01/26 12:51:19;;;;;;;174.38;61.90;;;;;;;-0.53;nan;101684.94;5012824;28;20040;-73
2022/01/26 12:53:50;;;;;;;171.38;62.78;;;;;;;-0.57;nan;101678.41;5016790;28;20041;-73
2022/01/26 12:56:16;;;;;;;158.88;61.72;;;;;;;-0.53;nan;101684.94;5031460;28;20132;-73
2022/01/26 12:58:42;;;;;;;171.90;61.78;;;;;;;-0.49;nan;101691.53;5029626;28;20128;-75
2022/01/26 13:01:11;;;;;;;171.38;60.53;;;;;;;-0.60;nan;101676.84;5031453;28;20045;-74
2022/01/26 13:03:41;;;;;;;182.23;62.33;;;;;;;-0.49;nan;101691.53;5011651;28;20368;-75
2022/01/26 13:06:11;;;;;;;172.57;61.25;;;;;;;-0.51;nan;101686.47;5033446;28;20038;-76
2022/01/26 13:08:56;;;;;;;167.77;60.95;;;;;;;-0.58;nan;101680.13;5011907;28;20042;-75
2022/01/26 13:11:33;;;;;;;161.70;60.85;;;;;;;-0.50;nan;101695.91;5028295;28;20088;-74
2022/01/26 13:14:11;;;;;;;155.02;56.45;;;;;;;-0.59;nan;101680.28;5026965;28;20056;-74
2022/01/26 13:16:39;;;;;;;165.27;60.53;;;;;;;-0.49;nan;101694.94;5012898;28;20539;-74
2022/01/26 13:19:28;;;;;;;157.18;58.08;;;;;;;-0.58;nan;101677.56;5030044;28;20040;-76
2022/01/26 13:30:30;;;;;;;172.07;59.72;;;;;;;-0.48;nan;101698.34;5028506;28;20030;-73
2022/01/26 13:33:37;;;;;;;158.27;58.85;;;;;;;-0.46;nan;101692.09;5026223;28;20037;-74
2022/01/26 13:38:53;;;;;;;159.32;58.45;;;;;;;-0.51;nan;101680.47;5031987;28;20116;-74
2022/01/26 13:49:43;;;;;;;171.45;61.08;;;;;;;-0.55;nan;101650.63;5031097;28;20195;-73
2022/01/26 13:59:51;;;;;;;173.40;61.40;;;;;;;-0.62;nan;101649.44;5028681;28;20037;-72
2022/01/26 14:02:17;;;;;;;173.10;61.10;;;;;;;-0.50;nan;101671.78;5030066;28;20034;-73